Kobi Ruegg — C6DI4 — position and weather

sailwx.info

Track history (hours):
 
Tides and Currents Weather Stations Pressure Air Temp Water Temp Dewpoint Dewpoint Depression Visibility Wind Speed Wind Dir Waves Ship Positions

Kobi Ruegg

Last reported at 2018-Apr-07 02:49 UTC. Time now 2018-Jun-22 01:44 UTC.
Position N 32°08' E 030°48'.
Warning: this ship's position is months out of date.

Length 59 m; draft 4.7 m.

Type: Cargo ship. MMSI: 311000683.

Date/timePositionNaut miles runAvg speedWind from/ knotsBaromVisibWave heightAir tempDewpointWater temp
2018-Apr-07 02:49N 32°08' E 030°48'0 0.1
2018-Apr-07 02:30N 32°08' E 030°48'1 0.5
2018-Apr-07 00:50N 32°08' E 030°49'0 0.1
2018-Apr-06 23:51N 32°08' E 030°49'0 0.1
2018-Apr-06 23:30N 32°08' E 030°49'0 0.6
2018-Apr-06 23:00N 32°09' E 030°49'0 0.5
2018-Apr-06 22:30N 32°09' E 030°49'0 0.1
2018-Apr-06 21:37N 32°09' E 030°49'0 0.6
2018-Apr-06 21:30N 32°09' E 030°49'1 0.6
2018-Apr-06 20:25N 32°09' E 030°50'0 0.2
2018-Apr-06 19:38N 32°09' E 030°49'0 0.1
2018-Apr-06 16:37N 32°09' E 030°50'0 0.4
2018-Apr-06 16:30N 32°09' E 030°50'0 0.1
2018-Apr-06 15:02N 32°09' E 030°50'0 0.2
2018-Apr-06 15:00N 32°09' E 030°50'0 0.6
2018-Apr-06 14:30N 32°09' E 030°50'0 0.0
2018-Apr-06 09:37N 32°10' E 030°50'0 0.1
2018-Apr-06 09:13N 32°10' E 030°50'0 0.4
2018-Apr-06 09:00N 32°10' E 030°50'0 0.0
2018-Apr-06 05:37N 32°10' E 030°50'0 0.4
2018-Apr-06 05:30N 32°10' E 030°50'0 0.1
2018-Apr-06 04:17N 32°10' E 030°50'12 1.9
2018-Apr-05 21:59N 32°06' E 030°36'0 0.3
2018-Apr-05 21:12N 32°06' E 030°36'0 0.6
2018-Apr-05 21:00N 32°06' E 030°36'0 0.1
2018-Apr-05 12:19N 32°06' E 030°36'1 0.2
2018-Apr-05 07:57N 32°07' E 030°36'0 0.5
2018-Apr-05 07:30N 32°06' E 030°36'1 0.1
2018-Apr-05 00:43N 32°07' E 030°36'  
2018-Mar-28 04:02N 32°05' E 030°31'0 3.2
2018-Mar-28 03:58N 32°05' E 030°31'  
Track history (hours):
 
Tides and Currents Weather Stations Pressure Air Temp Water Temp Dewpoint Dewpoint Depression Visibility Wind Speed Wind Dir Waves Ship Positions

Kobi Ruegg

Last reported at 2018-Apr-07 02:49 UTC. Time now 2018-Jun-22 01:44 UTC.
Position N 32°08' E 030°48'.
Warning: this ship's position is months out of date.

Length 59 m; draft 4.7 m.

Type: Cargo ship. MMSI: 311000683.

Date/timePositionNaut miles runAvg speedWind from/ knotsBaromVisibWave heightAir tempDewpointWater temp
2018-Apr-07 02:49N 32°08' E 030°48'0 0.1
2018-Apr-07 02:30N 32°08' E 030°48'1 0.5
2018-Apr-07 00:50N 32°08' E 030°49'0 0.1
2018-Apr-06 23:51N 32°08' E 030°49'0 0.1
2018-Apr-06 23:30N 32°08' E 030°49'0 0.6
2018-Apr-06 23:00N 32°09' E 030°49'0 0.5
2018-Apr-06 22:30N 32°09' E 030°49'0 0.1
2018-Apr-06 21:37N 32°09' E 030°49'0 0.6
2018-Apr-06 21:30N 32°09' E 030°49'1 0.6
2018-Apr-06 20:25N 32°09' E 030°50'0 0.2
2018-Apr-06 19:38N 32°09' E 030°49'0 0.1
2018-Apr-06 16:37N 32°09' E 030°50'0 0.4
2018-Apr-06 16:30N 32°09' E 030°50'0 0.1
2018-Apr-06 15:02N 32°09' E 030°50'0 0.2
2018-Apr-06 15:00N 32°09' E 030°50'0 0.6
2018-Apr-06 14:30N 32°09' E 030°50'0 0.0
2018-Apr-06 09:37N 32°10' E 030°50'0 0.1
2018-Apr-06 09:13N 32°10' E 030°50'0 0.4
2018-Apr-06 09:00N 32°10' E 030°50'0 0.0
2018-Apr-06 05:37N 32°10' E 030°50'0 0.4
2018-Apr-06 05:30N 32°10' E 030°50'0 0.1
2018-Apr-06 04:17N 32°10' E 030°50'12 1.9
2018-Apr-05 21:59N 32°06' E 030°36'0 0.3
2018-Apr-05 21:12N 32°06' E 030°36'0 0.6
2018-Apr-05 21:00N 32°06' E 030°36'0 0.1
2018-Apr-05 12:19N 32°06' E 030°36'1 0.2
2018-Apr-05 07:57N 32°07' E 030°36'0 0.5
2018-Apr-05 07:30N 32°06' E 030°36'1 0.1
2018-Apr-05 00:43N 32°07' E 030°36'  
2018-Mar-28 04:02N 32°05' E 030°31'0 3.2
2018-Mar-28 03:58N 32°05' E 030°31'  

Dump ship's entire track history